Portada
METAR-TAF:

METAR-TAF

Aeroports :

Conakry, Guinea

latitud: 09-34N, longitud: 013-37W, altitud: 26 m

Observació

L'informe es va fer fa 11 hores i 36 minuts, a les 18:00 UTC
Vent 6 kt del Oest
Temperatura 29°C
Humitat 74%
Pressió 1010 hPa
Visibilitat: 3000 m
calitja

METAR: GUCY 281800Z 28006KT 3000 HZ NSC 29/24 Q1010 NOSIG

Hora: 05:36 (05:36 UTC)


TAF: manca

Observacions i pronòstics meteorològics de més de 4000 aeroports (METAR i TAF).

Les estacions disponibles són els punts grocs i vermells al mapa.

Posi el ratolí al punt desitjat per veure el nom de l'estació.

Feu clic per veure les observacions i els pronòstics meteorològics.

Per canviar el mapa: feu clic els botons verds amb una creu de color negre per apropar; al botó verd amb un guió per allunyar la imatge; o en les fletxes verdes per a mapes adjacents.


METAR-TAF: